createdAt,value
2022-12-04T00:01:27.422Z,94.55
2022-12-04T00:03:58.213Z,94.32
2022-12-04T00:06:26.572Z,94.46
2022-12-04T00:08:55.244Z,94.51
2022-12-04T00:11:26.450Z,94.67
2022-12-04T00:13:55.151Z,94.67
2022-12-04T00:16:29.931Z,94.57
2022-12-04T00:18:58.851Z,94.61
2022-12-04T00:21:27.203Z,94.26
2022-12-04T00:23:55.282Z,94.19
2022-12-04T00:26:26.615Z,94.35
2022-12-04T00:28:55.200Z,94.33
2022-12-04T00:31:28.516Z,94.47
2022-12-04T00:33:57.094Z,94.02
2022-12-04T00:36:27.263Z,93.89
2022-12-04T00:39:00.744Z,94.50
2022-12-04T00:41:31.501Z,94.68
2022-12-04T00:44:01.576Z,94.36
2022-12-04T00:46:30.325Z,94.25
2022-12-04T00:49:02.918Z,94.15
2022-12-04T00:51:31.275Z,93.92
2022-12-04T00:53:59.258Z,94.63
2022-12-04T00:56:28.803Z,94.28
2022-12-04T00:58:59.489Z,93.96
2022-12-04T01:01:31.138Z,94.12
2022-12-04T01:03:59.653Z,93.61
2022-12-04T01:06:33.237Z,93.92
2022-12-04T01:09:04.014Z,93.84
2022-12-04T01:11:32.651Z,93.74
2022-12-04T01:14:01.553Z,93.55
2022-12-04T01:16:36.150Z,93.81
2022-12-04T01:19:05.693Z,93.49
2022-12-04T01:21:34.694Z,93.37
2022-12-04T01:24:03.065Z,93.75
2022-12-04T01:26:30.805Z,93.61
2022-12-04T01:28:59.468Z,92.95
2022-12-04T01:31:27.513Z,93.93
2022-12-04T01:33:55.445Z,93.80
2022-12-04T01:36:28.624Z,93.88
2022-12-04T01:38:59.571Z,94.15
2022-12-04T01:41:32.457Z,94.37
2022-12-04T01:44:10.369Z,94.42
2022-12-04T01:46:43.133Z,94.52
2022-12-04T01:49:40.572Z,94.34
2022-12-04T01:52:20.933Z,94.86
2022-12-04T01:55:07.108Z,94.61
2022-12-04T01:57:36.148Z,94.08
2022-12-04T02:00:12.890Z,93.55
2022-12-04T02:02:45.240Z,94.46
2022-12-04T02:05:22.747Z,93.86
2022-12-04T02:07:54.144Z,94.27
2022-12-04T02:10:27.515Z,93.89
2022-12-04T02:13:04.909Z,94.22
2022-12-04T02:15:46.440Z,94.33
2022-12-04T02:18:41.395Z,93.39
2022-12-04T02:21:34.141Z,93.77
2022-12-04T02:24:48.249Z,93.94
2022-12-04T02:27:32.598Z,93.67
2022-12-04T02:30:06.331Z,93.88
2022-12-04T02:32:41.378Z,93.84
2022-12-04T02:35:28.094Z,93.48
2022-12-04T02:38:18.903Z,93.57
2022-12-04T02:41:07.457Z,93.68
2022-12-04T02:43:58.465Z,93.59
2022-12-04T02:46:37.921Z,93.68
2022-12-04T02:49:09.861Z,93.60
2022-12-04T02:51:41.673Z,93.00
2022-12-04T02:54:34.498Z,93.57
2022-12-04T02:57:03.640Z,93.35
2022-12-04T02:59:44.146Z,94.25
2022-12-04T03:02:34.723Z,94.37
2022-12-04T03:05:13.962Z,94.28
2022-12-04T03:07:57.688Z,92.92
2022-12-04T03:10:36.985Z,94.15
2022-12-04T03:13:16.947Z,94.35
2022-12-04T03:15:49.829Z,94.12
2022-12-04T03:18:51.878Z,92.68
2022-12-04T03:21:23.971Z,93.91
2022-12-04T03:24:12.575Z,93.44
2022-12-04T03:26:55.046Z,94.74
2022-12-04T03:29:44.659Z,94.72
2022-12-04T03:32:29.600Z,94.71
2022-12-04T03:35:14.608Z,95.10
2022-12-04T03:37:57.499Z,94.34
2022-12-04T03:40:42.175Z,93.90
2022-12-04T03:43:53.885Z,94.81
2022-12-04T03:46:44.549Z,94.48
2022-12-04T03:49:16.474Z,94.26
2022-12-04T03:51:58.671Z,93.07
2022-12-04T03:54:37.403Z,93.33
2022-12-04T03:57:16.367Z,94.14
2022-12-04T04:00:11.220Z,93.75
2022-12-04T04:03:14.770Z,93.11
2022-12-04T04:05:48.229Z,93.87
2022-12-04T04:08:31.252Z,93.63
2022-12-04T04:11:04.873Z,91.78
2022-12-04T04:14:12.250Z,93.85
2022-12-04T04:17:06.847Z,94.29
2022-12-04T04:19:55.627Z,93.61
2022-12-04T04:22:45.449Z,93.81
2022-12-04T04:25:18.793Z,92.60
2022-12-04T04:27:58.577Z,93.63
2022-12-04T04:30:28.417Z,93.71
2022-12-04T04:33:11.829Z,94.28
2022-12-04T04:36:09.343Z,94.22
2022-12-04T04:39:01.233Z,93.82
2022-12-04T04:41:57.611Z,93.15
2022-12-04T04:44:37.935Z,92.88
2022-12-04T04:47:10.126Z,93.34
2022-12-04T04:49:40.861Z,92.68
2022-12-04T04:52:09.743Z,90.03
2022-12-04T04:54:39.290Z,95.07
2022-12-04T04:57:07.202Z,93.88
2022-12-04T04:59:38.555Z,95.02
2022-12-04T05:02:06.457Z,93.48
2022-12-04T05:04:37.438Z,93.82
2022-12-04T05:07:05.620Z,93.74
2022-12-04T05:09:38.135Z,93.48
2022-12-04T05:12:10.348Z,93.67
2022-12-04T05:14:38.204Z,93.52
2022-12-04T05:17:12.386Z,93.13
2022-12-04T05:19:54.194Z,94.26
2022-12-04T05:22:26.488Z,94.42
2022-12-04T05:24:55.424Z,92.75
2022-12-04T05:27:27.754Z,94.45
2022-12-04T05:29:56.919Z,93.85
2022-12-04T05:32:29.887Z,92.58
2022-12-04T05:34:58.997Z,93.87
2022-12-04T05:37:27.287Z,93.82
2022-12-04T05:39:56.049Z,93.98
2022-12-04T05:42:24.446Z,92.86
2022-12-04T05:44:52.245Z,93.59
2022-12-04T05:47:20.093Z,93.20
2022-12-04T05:49:48.303Z,93.54
2022-12-04T05:52:16.292Z,93.39
2022-12-04T05:54:44.045Z,93.63
2022-12-04T05:57:12.292Z,93.22
2022-12-04T05:59:40.167Z,92.92
2022-12-04T06:02:08.064Z,93.34
2022-12-04T06:04:38.598Z,92.83
2022-12-04T06:07:07.178Z,92.74
2022-12-04T06:09:34.963Z,92.44
2022-12-04T06:12:04.181Z,92.93
2022-12-04T06:14:39.336Z,92.61
2022-12-04T06:17:08.560Z,92.64
2022-12-04T06:19:39.535Z,92.71
2022-12-04T06:22:10.518Z,92.35
2022-12-04T06:24:39.397Z,91.52
2022-12-04T06:29:56.129Z,91.51
2022-12-04T06:32:27.434Z,92.87
2022-12-04T06:34:56.175Z,91.52
2022-12-04T06:37:25.750Z,92.60
2022-12-04T06:39:53.935Z,92.13
2022-12-04T06:42:22.547Z,91.30
2022-12-04T06:44:53.529Z,91.52
2022-12-04T06:47:21.410Z,90.45
2022-12-04T06:49:51.319Z,93.01
2022-12-04T06:52:19.212Z,92.29
2022-12-04T06:54:46.951Z,88.35
2022-12-04T06:57:15.175Z,89.20
2022-12-04T06:59:42.841Z,85.33
2022-12-04T07:02:11.302Z,90.59
2022-12-04T07:04:39.603Z,93.06
2022-12-04T07:07:10.342Z,91.10
2022-12-04T07:09:38.481Z,90.86
2022-12-04T07:12:06.911Z,93.18
2022-12-04T07:14:34.718Z,92.43
2022-12-04T07:17:02.625Z,91.45
2022-12-04T07:19:31.036Z,92.43
2022-12-04T07:21:58.830Z,91.37
2022-12-04T07:24:29.953Z,91.61
2022-12-04T07:26:58.155Z,91.94
2022-12-04T07:29:25.979Z,91.71
2022-12-04T07:31:53.956Z,91.46
2022-12-04T07:34:24.131Z,91.23
2022-12-04T07:36:52.041Z,91.09
2022-12-04T07:39:19.931Z,90.22
2022-12-04T07:41:48.227Z,90.20
2022-12-04T07:44:16.114Z,90.79
2022-12-04T07:46:44.025Z,90.58
2022-12-04T07:49:13.671Z,91.06
2022-12-04T07:51:41.451Z,89.66
2022-12-04T07:54:09.691Z,90.71
2022-12-04T07:56:37.913Z,90.29
2022-12-04T07:59:06.225Z,90.89
2022-12-04T08:01:34.264Z,89.71
2022-12-04T08:04:04.081Z,89.92
2022-12-04T08:06:35.603Z,89.70
2022-12-04T08:09:10.127Z,89.50
2022-12-04T08:11:44.195Z,89.56
2022-12-04T08:14:12.875Z,89.38
2022-12-04T08:16:47.121Z,90.03
2022-12-04T08:19:21.581Z,89.24
2022-12-04T08:21:49.928Z,89.55
2022-12-04T08:24:18.180Z,89.40
2022-12-04T15:56:02.591Z,93.74
2022-12-04T15:58:37.830Z,94.00
2022-12-04T16:01:11.772Z,93.66
2022-12-04T16:03:43.276Z,94.01
2022-12-04T16:06:19.638Z,93.79
2022-12-04T16:08:56.842Z,93.72
2022-12-04T16:11:35.067Z,93.27
2022-12-04T16:14:09.935Z,93.64
2022-12-04T16:16:46.646Z,93.45
2022-12-04T16:19:34.814Z,93.54
2022-12-04T16:22:10.579Z,93.48
2022-12-04T16:24:39.931Z,93.33
2022-12-04T16:27:14.979Z,93.51
2022-12-04T16:29:45.052Z,93.08
2022-12-04T16:32:16.124Z,93.62
2022-12-04T16:34:44.451Z,93.32
2022-12-04T16:37:21.188Z,93.55
2022-12-04T16:39:49.972Z,93.25
2022-12-04T16:42:23.995Z,92.90
2022-12-04T16:44:53.298Z,92.97
2022-12-04T16:47:21.167Z,93.71
2022-12-04T16:49:50.697Z,93.57
2022-12-04T16:52:19.723Z,93.90
2022-12-04T16:54:47.717Z,93.97
2022-12-04T16:57:15.528Z,93.67
2022-12-04T16:59:43.745Z,93.79
2022-12-04T17:02:26.640Z,93.18
2022-12-04T17:04:57.914Z,93.00
2022-12-04T17:07:26.122Z,93.84
2022-12-04T17:09:54.347Z,93.52
2022-12-04T17:12:25.206Z,93.47
2022-12-04T17:14:52.999Z,92.40
2022-12-04T17:17:24.029Z,93.66
2022-12-04T17:19:51.900Z,93.62
2022-12-04T17:22:24.261Z,93.58
2022-12-04T17:24:57.289Z,93.42
2022-12-04T17:27:25.724Z,93.24
2022-12-04T17:29:53.976Z,92.80
2022-12-04T17:32:22.153Z,92.36
2022-12-04T17:34:51.748Z,92.81
2022-12-04T17:37:21.140Z,92.81
2022-12-04T17:39:48.924Z,92.97
2022-12-04T17:42:17.844Z,92.70
2022-12-04T17:44:46.147Z,91.99
2022-12-04T17:47:14.215Z,92.63
2022-12-04T17:49:42.138Z,93.61
2022-12-04T17:52:10.792Z,93.38
2022-12-04T17:54:38.588Z,93.08
2022-12-04T17:57:06.725Z,92.85
2022-12-04T17:59:34.874Z,93.98
2022-12-04T18:02:02.876Z,92.74
2022-12-04T18:04:34.325Z,94.57
2022-12-04T18:07:02.091Z,94.23
2022-12-04T18:09:30.234Z,94.00
2022-12-04T18:11:58.922Z,93.61
2022-12-04T18:14:26.835Z,93.99
2022-12-04T18:16:56.845Z,93.48
2022-12-04T18:19:29.284Z,94.07
2022-12-04T18:21:58.491Z,93.53
2022-12-04T18:24:33.489Z,94.35
2022-12-04T18:27:03.997Z,94.35
2022-12-04T18:29:35.348Z,94.46
2022-12-04T18:32:03.285Z,94.50
2022-12-04T18:34:31.568Z,94.30
2022-12-04T18:36:59.749Z,93.88
2022-12-04T18:39:27.520Z,94.20
2022-12-04T18:41:59.657Z,94.24
2022-12-04T18:44:28.031Z,93.89
2022-12-04T18:47:00.504Z,92.55
2022-12-04T18:49:31.030Z,94.75
2022-12-04T18:52:03.608Z,94.04
2022-12-04T18:54:32.582Z,95.31
2022-12-04T18:57:00.832Z,93.56
2022-12-04T18:59:33.324Z,95.01
2022-12-04T19:02:04.556Z,94.66
2022-12-04T19:04:33.546Z,94.77
2022-12-04T19:07:02.619Z,95.06
2022-12-04T19:12:18.759Z,94.21
2022-12-04T19:14:46.675Z,95.22
2022-12-04T19:17:15.443Z,95.00
2022-12-04T19:19:43.827Z,94.81
2022-12-04T19:22:11.632Z,94.52
2022-12-04T19:24:39.689Z,94.56
2022-12-04T19:27:12.240Z,93.79
2022-12-04T19:29:41.855Z,93.95
2022-12-04T19:32:11.312Z,94.80
2022-12-04T19:34:39.652Z,94.64
2022-12-04T19:37:07.846Z,94.33
2022-12-04T19:39:36.355Z,93.74
2022-12-04T19:42:04.257Z,94.32
2022-12-04T19:44:49.071Z,94.67
2022-12-04T19:47:19.207Z,94.77
2022-12-04T19:49:47.654Z,93.91
2022-12-04T19:52:16.143Z,94.80
2022-12-04T19:54:44.296Z,95.05
2022-12-04T19:57:15.351Z,94.89
2022-12-04T19:59:46.252Z,94.62
2022-12-04T20:02:16.068Z,94.27
2022-12-04T20:04:44.365Z,94.86
2022-12-04T20:07:12.197Z,93.29
2022-12-04T20:09:40.356Z,95.08
2022-12-04T20:12:08.739Z,95.25
2022-12-04T20:14:36.540Z,94.77
2022-12-04T20:17:05.444Z,94.66
2022-12-04T20:19:33.777Z,94.93
2022-12-04T20:22:01.728Z,94.65
2022-12-04T20:24:29.616Z,94.96
2022-12-04T20:26:57.928Z,94.69
2022-12-04T20:29:25.547Z,94.90
2022-12-04T20:31:53.297Z,94.54
2022-12-04T20:34:21.906Z,94.33
2022-12-04T20:36:50.056Z,94.48
2022-12-04T20:39:19.716Z,93.93
2022-12-04T20:41:48.368Z,94.15
2022-12-04T20:44:18.411Z,93.83
2022-12-04T20:46:47.011Z,94.36
2022-12-04T20:49:21.654Z,94.40
2022-12-04T20:51:53.507Z,93.75
2022-12-04T20:54:23.421Z,93.86
2022-12-04T20:56:53.448Z,93.59
2022-12-04T20:59:24.030Z,93.58
2022-12-04T21:01:52.618Z,93.60
2022-12-04T21:04:21.973Z,93.44
2022-12-04T21:06:49.823Z,93.10
2022-12-04T21:09:21.478Z,93.19
2022-12-04T21:11:55.176Z,93.06
2022-12-04T21:14:47.991Z,94.05
2022-12-04T21:17:19.250Z,92.85
2022-12-04T21:19:49.904Z,94.10
2022-12-04T21:22:19.396Z,94.32
2022-12-04T21:24:47.927Z,93.63
2022-12-04T21:27:21.221Z,93.51
2022-12-04T21:29:50.771Z,91.78
2022-12-04T21:32:19.814Z,93.52
2022-12-04T21:34:48.377Z,93.09
2022-12-04T21:37:16.560Z,93.02
2022-12-04T21:39:44.507Z,93.23
2022-12-04T21:42:30.648Z,93.00
2022-12-04T21:45:03.025Z,92.26
2022-12-04T21:47:33.262Z,93.14
2022-12-04T21:50:02.496Z,92.79
2022-12-04T21:52:31.733Z,92.88
2022-12-04T21:55:02.630Z,92.86
2022-12-04T21:57:31.305Z,92.51
2022-12-04T21:59:59.212Z,92.53
2022-12-04T22:02:27.176Z,91.56
2022-12-04T22:04:55.607Z,93.19
2022-12-04T22:07:23.448Z,92.73
2022-12-04T22:09:51.247Z,92.73
2022-12-04T22:12:48.006Z,92.78
2022-12-04T22:15:10.535Z,92.34
2022-12-04T22:17:38.682Z,92.41
2022-12-04T22:20:09.914Z,92.57
2022-12-04T22:22:38.222Z,92.54
2022-12-04T22:25:06.392Z,92.30
2022-12-04T22:27:34.236Z,92.32
2022-12-04T22:30:02.791Z,92.03
2022-12-04T22:32:31.980Z,92.66
2022-12-04T22:34:59.665Z,92.35
2022-12-04T22:37:27.840Z,92.32
2022-12-04T22:39:55.653Z,92.32
2022-12-04T22:42:23.815Z,92.12
2022-12-04T22:44:52.053Z,92.12
2022-12-04T22:47:19.813Z,92.10
2022-12-04T22:49:47.581Z,92.23
2022-12-04T22:52:16.499Z,91.61
2022-12-04T22:54:44.940Z,92.15
2022-12-04T22:57:13.237Z,92.76
2022-12-04T22:59:41.421Z,91.47
2022-12-04T23:02:09.387Z,93.01
2022-12-04T23:04:37.110Z,93.03
2022-12-04T23:07:05.816Z,93.03
2022-12-04T23:09:33.700Z,93.21
2022-12-04T23:12:04.613Z,92.87
2022-12-04T23:14:34.008Z,92.09
2022-12-04T23:17:01.950Z,93.11
2022-12-04T23:19:31.619Z,92.90
2022-12-04T23:21:59.885Z,93.12
2022-12-04T23:24:27.691Z,93.08
2022-12-04T23:26:55.529Z,92.43
2022-12-04T23:29:51.472Z,93.31
2022-12-04T23:32:11.529Z,92.78
2022-12-04T23:34:42.695Z,91.92
2022-12-04T23:37:10.638Z,92.30
2022-12-04T23:39:38.369Z,93.22
2022-12-04T23:42:06.521Z,92.97
2022-12-04T23:44:34.353Z,93.04
2022-12-04T23:47:02.230Z,92.83
2022-12-04T23:49:30.355Z,93.12
2022-12-04T23:51:58.253Z,91.56
2022-12-04T23:54:26.071Z,93.19
2022-12-04T23:56:54.238Z,92.77
2022-12-04T23:59:22.351Z,92.58
